HEBL

Abu Simbel Airport

Abu Simbel, Egypt
METAR HEBL 151700Z 29010KT CAVOK 16/03 Q1021 NOSIG
Observed Flight Rules
Feb-15 @ 17:00 UTC (2 hours ago) Visual Flight Rules
Wind Visibility Clouds
290° at 10 knots 10,000+ meters
  • Clear skies
Temperatures Readings
Current 16°C / 61°F
Dewpoint 3°C / 37°F
Humidity 42%
Altimeter 30.15" Hg
Pressure 1020.92 hPa
Elevation 188
METAR HEBL 151700Z 29010KT CAVOK 16/03 Q1021 NOSIG
Observed Flight Rules
Feb-15 @ 17:00 UTC
(2 hours ago)
VFR
Wind Visibility
290° at 10 knots 10,000+ meters
Clouds
  • Clear skies
Temperature Dewpoint
16°C / 61°F 3°C / 37°F
Humidity Altimeter Pressure
42% 30.15" Hg 1020.92 hPa